sensor_id;sensor_type;location;lat;lon;timestamp;pressure;altitude;pressure_sealevel;temperature;humidity
51999;BME280;38015;50.924;11.598;2023-02-20T00:00:15;100212.67;;;22.16;27.81
51999;BME280;38015;50.924;11.598;2023-02-20T00:02:37;100208.77;;;22.11;27.89
51999;BME280;38015;50.924;11.598;2023-02-20T00:05:08;100206.35;;;22.06;27.92
51999;BME280;38015;50.924;11.598;2023-02-20T00:07:39;100206.14;;;22.22;27.69
51999;BME280;38015;50.924;11.598;2023-02-20T00:10:10;100191.93;;;22.23;27.65
51999;BME280;38015;50.924;11.598;2023-02-20T00:12:39;100186.18;;;22.23;27.64
51999;BME280;38015;50.924;11.598;2023-02-20T00:15:11;100186.32;;;22.23;27.64
51999;BME280;38015;50.924;11.598;2023-02-20T00:17:41;100188.93;;;22.21;27.67
51999;BME280;38015;50.924;11.598;2023-02-20T00:20:13;100190.71;;;21.94;28.15
51999;BME280;38015;50.924;11.598;2023-02-20T00:22:41;100190.39;;;22.01;28.02
51999;BME280;38015;50.924;11.598;2023-02-20T00:25:12;100195.17;;;22.12;27.85
51999;BME280;38015;50.924;11.598;2023-02-20T00:27:43;100188.94;;;22.16;27.78
51999;BME280;38015;50.924;11.598;2023-02-20T00:30:15;100183.07;;;22.19;27.74
51999;BME280;38015;50.924;11.598;2023-02-20T00:32:44;100178.55;;;22.17;27.77
51999;BME280;38015;50.924;11.598;2023-02-20T00:35:15;100180.23;;;22.25;27.63
51999;BME280;38015;50.924;11.598;2023-02-20T00:37:45;100182.71;;;22.18;27.74
51999;BME280;38015;50.924;11.598;2023-02-20T00:40:17;100180.17;;;22.15;27.78
51999;BME280;38015;50.924;11.598;2023-02-20T00:42:46;100172.09;;;22.17;27.76
51999;BME280;38015;50.924;11.598;2023-02-20T00:45:17;100172.46;;;22.13;27.85
51999;BME280;38015;50.924;11.598;2023-02-20T00:47:47;100164.77;;;22.10;27.89
51999;BME280;38015;50.924;11.598;2023-02-20T00:50:18;100160.92;;;22.16;27.81
51999;BME280;38015;50.924;11.598;2023-02-20T00:52:49;100161.76;;;22.21;27.74
51999;BME280;38015;50.924;11.598;2023-02-20T00:55:19;100165.68;;;22.14;27.85
51999;BME280;38015;50.924;11.598;2023-02-20T00:57:49;100169.64;;;22.23;27.66
51999;BME280;38015;50.924;11.598;2023-02-20T01:00:22;100164.51;;;22.05;27.97
51999;BME280;38015;50.924;11.598;2023-02-20T01:02:51;100161.58;;;22.15;27.84
51999;BME280;38015;50.924;11.598;2023-02-20T01:05:21;100159.45;;;22.14;27.85
51999;BME280;38015;50.924;11.598;2023-02-20T01:07:51;100163.84;;;22.18;27.77
51999;BME280;38015;50.924;11.598;2023-02-20T01:10:21;100169.43;;;22.04;28.02
51999;BME280;38015;50.924;11.598;2023-02-20T01:12:52;100171.74;;;22.14;27.80
51999;BME280;38015;50.924;11.598;2023-02-20T01:15:22;100168.85;;;22.07;27.95
51999;BME280;38015;50.924;11.598;2023-02-20T01:17:53;100168.87;;;22.00;28.05
51999;BME280;38015;50.924;11.598;2023-02-20T01:20:23;100164.68;;;22.19;27.75
51999;BME280;38015;50.924;11.598;2023-02-20T01:22:54;100168.97;;;22.18;27.71
51999;BME280;38015;50.924;11.598;2023-02-20T01:25:25;100177.06;;;22.08;27.93
51999;BME280;38015;50.924;11.598;2023-02-20T01:27:55;100170.37;;;22.15;27.78
51999;BME280;38015;50.924;11.598;2023-02-20T01:30:25;100164.03;;;21.98;28.07
51999;BME280;38015;50.924;11.598;2023-02-20T01:32:56;100155.39;;;22.19;27.73
51999;BME280;38015;50.924;11.598;2023-02-20T01:35:26;100147.21;;;22.12;27.79
51999;BME280;38015;50.924;11.598;2023-02-20T01:37:57;100150.75;;;22.06;27.90
51999;BME280;38015;50.924;11.598;2023-02-20T01:40:27;100151.66;;;22.12;27.86
51999;BME280;38015;50.924;11.598;2023-02-20T01:42:58;100148.17;;;22.05;27.98
51999;BME280;38015;50.924;11.598;2023-02-20T01:45:34;100143.73;;;22.17;27.79
51999;BME280;38015;50.924;11.598;2023-02-20T01:47:59;100133.61;;;22.24;27.68
51999;BME280;38015;50.924;11.598;2023-02-20T01:50:32;100135.39;;;22.23;27.70
51999;BME280;38015;50.924;11.598;2023-02-20T01:53:04;100135.15;;;22.28;27.60
51999;BME280;38015;50.924;11.598;2023-02-20T01:55:37;100129.26;;;22.17;27.83
51999;BME280;38015;50.924;11.598;2023-02-20T01:58:07;100125.42;;;22.23;27.71
51999;BME280;38015;50.924;11.598;2023-02-20T02:00:32;100123.37;;;22.19;27.77
51999;BME280;38015;50.924;11.598;2023-02-20T02:03:06;100116.89;;;22.26;27.67
51999;BME280;38015;50.924;11.598;2023-02-20T02:05:35;100117.88;;;22.11;27.89
51999;BME280;38015;50.924;11.598;2023-02-20T02:08:05;100101.30;;;22.24;27.70
51999;BME280;38015;50.924;11.598;2023-02-20T02:10:37;100101.68;;;22.19;27.80
51999;BME280;38015;50.924;11.598;2023-02-20T02:13:05;100110.28;;;22.24;27.71
51999;BME280;38015;50.924;11.598;2023-02-20T02:15:34;100119.12;;;22.10;27.92
51999;BME280;38015;50.924;11.598;2023-02-20T02:18:19;100120.91;;;22.23;27.71
51999;BME280;38015;50.924;11.598;2023-02-20T02:25:43;100120.89;;;22.15;27.84
51999;BME280;38015;50.924;11.598;2023-02-20T02:30:47;100115.68;;;22.19;27.80
51999;BME280;38015;50.924;11.598;2023-02-20T02:38:16;100113.36;;;22.24;27.71
51999;BME280;38015;50.924;11.598;2023-02-20T02:40:42;100107.62;;;22.16;27.85
51999;BME280;38015;50.924;11.598;2023-02-20T02:43:17;100102.05;;;22.07;27.99
51999;BME280;38015;50.924;11.598;2023-02-20T02:45:46;100096.71;;;22.15;27.87
51999;BME280;38015;50.924;11.598;2023-02-20T02:48:15;100091.43;;;22.19;27.78
51999;BME280;38015;50.924;11.598;2023-02-20T02:50:45;100091.12;;;22.20;27.81
51999;BME280;38015;50.924;11.598;2023-02-20T02:53:13;100094.28;;;22.26;27.67
51999;BME280;38015;50.924;11.598;2023-02-20T02:55:42;100100.54;;;22.22;27.77
51999;BME280;38015;50.924;11.598;2023-02-20T02:58:14;100097.98;;;21.94;28.25
51999;BME280;38015;50.924;11.598;2023-02-20T03:00:48;100097.53;;;22.11;27.96
51999;BME280;38015;50.924;11.598;2023-02-20T03:03:20;100090.34;;;22.14;27.90
51999;BME280;38015;50.924;11.598;2023-02-20T03:05:49;100083.66;;;22.14;27.92
51999;BME280;38015;50.924;11.598;2023-02-20T03:08:22;100076.80;;;22.16;27.83
51999;BME280;38015;50.924;11.598;2023-02-20T03:10:45;100081.97;;;22.17;27.84
51999;BME280;38015;50.924;11.598;2023-02-20T03:13:17;100087.50;;;22.19;27.82
51999;BME280;38015;50.924;11.598;2023-02-20T03:15:51;100083.29;;;22.22;27.76
51999;BME280;38015;50.924;11.598;2023-02-20T03:18:24;100080.24;;;22.03;28.05
51999;BME280;38015;50.924;11.598;2023-02-20T03:20:53;100082.93;;;22.17;27.84
51999;BME280;38015;50.924;11.598;2023-02-20T03:23:23;100088.62;;;22.20;27.81
51999;BME280;38015;50.924;11.598;2023-02-20T03:25:53;100088.52;;;22.14;27.91
51999;BME280;38015;50.924;11.598;2023-02-20T03:28:22;100086.35;;;22.13;27.89
51999;BME280;38015;50.924;11.598;2023-02-20T03:30:54;100095.84;;;22.08;27.89
51999;BME280;38015;50.924;11.598;2023-02-20T03:33:26;100089.94;;;22.12;27.88
51999;BME280;38015;50.924;11.598;2023-02-20T03:35:52;100089.30;;;22.18;27.76
51999;BME280;38015;50.924;11.598;2023-02-20T03:38:22;100092.11;;;22.03;28.04
51999;BME280;38015;50.924;11.598;2023-02-20T03:40:51;100091.14;;;22.16;27.83
51999;BME280;38015;50.924;11.598;2023-02-20T03:43:22;100091.71;;;22.26;27.61
51999;BME280;38015;50.924;11.598;2023-02-20T03:45:58;100092.28;;;22.20;27.78
51999;BME280;38015;50.924;11.598;2023-02-20T03:48:28;100086.74;;;22.07;27.92
51999;BME280;38015;50.924;11.598;2023-02-20T03:50:53;100083.98;;;22.21;27.70
51999;BME280;38015;50.924;11.598;2023-02-20T03:53:25;100086.14;;;22.24;27.70
51999;BME280;38015;50.924;11.598;2023-02-20T03:55:59;100081.53;;;22.11;27.90
51999;BME280;38015;50.924;11.598;2023-02-20T03:58:26;100083.69;;;22.22;27.72
51999;BME280;38015;50.924;11.598;2023-02-20T04:00:57;100082.50;;;22.14;27.87
51999;BME280;38015;50.924;11.598;2023-02-20T04:03:32;100099.37;;;22.24;27.69
51999;BME280;38015;50.924;11.598;2023-02-20T04:05:58;100105.70;;;22.19;27.80
51999;BME280;38015;50.924;11.598;2023-02-20T04:08:30;100100.75;;;22.24;27.68
51999;BME280;38015;50.924;11.598;2023-02-20T04:11:05;100092.76;;;22.22;27.73
51999;BME280;38015;50.924;11.598;2023-02-20T04:13:29;100092.62;;;22.20;27.73
51999;BME280;38015;50.924;11.598;2023-02-20T04:16:00;100091.02;;;22.21;27.70
51999;BME280;38015;50.924;11.598;2023-02-20T04:18:29;100085.98;;;22.29;27.53
51999;BME280;38015;50.924;11.598;2023-02-20T04:21:01;100090.24;;;22.26;27.56
51999;BME280;38015;50.924;11.598;2023-02-20T04:23:35;100093.00;;;22.21;27.65
51999;BME280;38015;50.924;11.598;2023-02-20T04:26:03;100082.87;;;22.18;27.66
51999;BME280;38015;50.924;11.598;2023-02-20T04:28:33;100092.96;;;22.22;27.62
51999;BME280;38015;50.924;11.598;2023-02-20T04:31:01;100095.98;;;22.25;27.57
51999;BME280;38015;50.924;11.598;2023-02-20T04:33:32;100098.68;;;22.26;27.55
51999;BME280;38015;50.924;11.598;2023-02-20T04:36:02;100101.95;;;22.20;27.65
51999;BME280;38015;50.924;11.598;2023-02-20T04:38:33;100109.25;;;22.25;27.57
51999;BME280;38015;50.924;11.598;2023-02-20T04:41:04;100116.58;;;22.14;27.73
51999;BME280;38015;50.924;11.598;2023-02-20T04:43:34;100126.11;;;22.24;27.57
51999;BME280;38015;50.924;11.598;2023-02-20T04:46:05;100134.15;;;22.21;27.64
51999;BME280;38015;50.924;11.598;2023-02-20T04:48:36;100133.70;;;22.27;27.54
51999;BME280;38015;50.924;11.598;2023-02-20T04:51:05;100130.78;;;22.16;27.69
51999;BME280;38015;50.924;11.598;2023-02-20T04:53:37;100136.60;;;22.15;27.74
51999;BME280;38015;50.924;11.598;2023-02-20T04:56:06;100134.54;;;22.21;27.63
51999;BME280;38015;50.924;11.598;2023-02-20T04:58:37;100133.45;;;22.18;27.67
51999;BME280;38015;50.924;11.598;2023-02-20T05:01:07;100130.82;;;22.23;27.58
51999;BME280;38015;50.924;11.598;2023-02-20T05:03:38;100130.14;;;22.13;27.73
51999;BME280;38015;50.924;11.598;2023-02-20T05:06:08;100126.79;;;22.17;27.65
51999;BME280;38015;50.924;11.598;2023-02-20T05:08:39;100116.21;;;22.17;27.67
51999;BME280;38015;50.924;11.598;2023-02-20T05:11:09;100106.57;;;22.15;27.69
51999;BME280;38015;50.924;11.598;2023-02-20T05:13:40;100094.84;;;22.26;27.50
51999;BME280;38015;50.924;11.598;2023-02-20T05:16:10;100087.21;;;21.89;28.09
51999;BME280;38015;50.924;11.598;2023-02-20T05:18:41;100059.95;;;22.11;27.74
51999;BME280;38015;50.924;11.598;2023-02-20T05:21:13;100053.07;;;22.02;27.90
51999;BME280;38015;50.924;11.598;2023-02-20T05:23:42;100050.95;;;22.04;27.87
51999;BME280;38015;50.924;11.598;2023-02-20T05:26:17;100043.70;;;22.12;27.73
51999;BME280;38015;50.924;11.598;2023-02-20T05:28:43;100037.12;;;22.21;27.59
51999;BME280;38015;50.924;11.598;2023-02-20T05:31:13;100048.93;;;21.98;27.96
51999;BME280;38015;50.924;11.598;2023-02-20T05:33:44;100055.56;;;22.09;27.81
51999;BME280;38015;50.924;11.598;2023-02-20T05:36:15;100057.18;;;22.06;27.83
51999;BME280;38015;50.924;11.598;2023-02-20T05:38:45;100051.61;;;22.03;27.91
51999;BME280;38015;50.924;11.598;2023-02-20T05:41:15;100036.97;;;22.03;27.86
51999;BME280;38015;50.924;11.598;2023-02-20T05:43:48;100030.33;;;21.99;27.97
51999;BME280;38015;50.924;11.598;2023-02-20T05:46:16;100024.69;;;22.18;27.63
51999;BME280;38015;50.924;11.598;2023-02-20T05:48:49;100033.58;;;22.04;27.87
51999;BME280;38015;50.924;11.598;2023-02-20T05:51:20;100035.23;;;22.15;27.69
51999;BME280;38015;50.924;11.598;2023-02-20T05:53:48;100039.74;;;22.09;27.79
51999;BME280;38015;50.924;11.598;2023-02-20T05:56:19;100044.75;;;22.12;27.72
51999;BME280;38015;50.924;11.598;2023-02-20T05:58:49;100049.22;;;22.12;27.72
51999;BME280;38015;50.924;11.598;2023-02-20T06:01:21;100050.61;;;22.09;27.78
51999;BME280;38015;50.924;11.598;2023-02-20T06:03:50;100049.44;;;22.14;27.69
51999;BME280;38015;50.924;11.598;2023-02-20T06:06:20;100043.79;;;22.06;27.82
51999;BME280;38015;50.924;11.598;2023-02-20T06:08:51;100042.09;;;22.01;27.91
51999;BME280;38015;50.924;11.598;2023-02-20T06:11:21;100029.58;;;22.16;27.63
51999;BME280;38015;50.924;11.598;2023-02-20T06:13:52;100006.26;;;21.94;27.97
51999;BME280;38015;50.924;11.598;2023-02-20T06:16:23;99996.49;;;22.13;27.63
51999;BME280;38015;50.924;11.598;2023-02-20T06:18:53;99997.66;;;22.14;27.56
51999;BME280;38015;50.924;11.598;2023-02-20T06:21:23;99996.88;;;22.22;27.42
51999;BME280;38015;50.924;11.598;2023-02-20T06:23:54;99982.06;;;22.14;27.53
51999;BME280;38015;50.924;11.598;2023-02-20T06:26:24;99985.09;;;22.23;27.37
51999;BME280;38015;50.924;11.598;2023-02-20T06:28:55;99976.17;;;22.12;27.51
51999;BME280;38015;50.924;11.598;2023-02-20T06:31:26;99986.04;;;22.15;27.47
51999;BME280;38015;50.924;11.598;2023-02-20T06:33:57;99977.59;;;22.15;27.41
51999;BME280;38015;50.924;11.598;2023-02-20T06:36:29;99975.29;;;22.17;27.30
51999;BME280;38015;50.924;11.598;2023-02-20T06:38:57;99971.76;;;22.16;27.31
51999;BME280;38015;50.924;11.598;2023-02-20T06:41:27;99982.56;;;22.17;27.26
51999;BME280;38015;50.924;11.598;2023-02-20T06:43:58;99975.35;;;22.16;27.20
51999;BME280;38015;50.924;11.598;2023-02-20T06:46:28;99978.47;;;22.11;27.26
51999;BME280;38015;50.924;11.598;2023-02-20T06:48:59;99977.32;;;22.11;27.25
51999;BME280;38015;50.924;11.598;2023-02-20T06:51:32;99982.55;;;22.17;27.12
51999;BME280;38015;50.924;11.598;2023-02-20T06:54:01;99985.69;;;22.20;27.07
51999;BME280;38015;50.924;11.598;2023-02-20T06:56:33;99983.68;;;22.16;27.14
51999;BME280;38015;50.924;11.598;2023-02-20T06:59:04;99977.95;;;22.18;27.12
51999;BME280;38015;50.924;11.598;2023-02-20T07:01:36;99980.46;;;22.19;27.48
51999;BME280;38015;50.924;11.598;2023-02-20T07:04:04;99980.20;;;22.31;27.60
51999;BME280;38015;50.924;11.598;2023-02-20T07:06:32;99976.57;;;22.34;27.85
51999;BME280;38015;50.924;11.598;2023-02-20T07:09:03;99980.71;;;22.37;27.84
51999;BME280;38015;50.924;11.598;2023-02-20T07:11:33;99970.55;;;22.35;28.14
51999;BME280;38015;50.924;11.598;2023-02-20T07:14:04;99967.50;;;22.33;28.25
51999;BME280;38015;50.924;11.598;2023-02-20T07:16:34;99954.97;;;22.38;28.27
51999;BME280;38015;50.924;11.598;2023-02-20T07:19:05;99963.50;;;22.44;28.38
51999;BME280;38015;50.924;11.598;2023-02-20T07:21:35;99950.54;;;22.41;28.55
51999;BME280;38015;50.924;11.598;2023-02-20T07:24:06;99966.23;;;22.39;28.59
51999;BME280;38015;50.924;11.598;2023-02-20T07:26:36;99964.16;;;22.46;28.65
51999;BME280;38015;50.924;11.598;2023-02-20T07:29:07;99961.06;;;22.39;28.86
51999;BME280;38015;50.924;11.598;2023-02-20T07:31:37;99957.22;;;22.44;28.58
51999;BME280;38015;50.924;11.598;2023-02-20T07:34:08;99967.29;;;22.43;28.88
51999;BME280;38015;50.924;11.598;2023-02-20T07:36:40;99956.93;;;22.36;29.06
51999;BME280;38015;50.924;11.598;2023-02-20T07:39:10;99949.41;;;22.44;28.98
51999;BME280;38015;50.924;11.598;2023-02-20T07:41:39;99952.66;;;22.50;28.91
51999;BME280;38015;50.924;11.598;2023-02-20T07:44:10;99959.67;;;22.48;28.95
51999;BME280;38015;50.924;11.598;2023-02-20T07:46:40;99961.13;;;22.53;28.94
51999;BME280;38015;50.924;11.598;2023-02-20T07:49:11;99966.61;;;22.63;28.91
51999;BME280;38015;50.924;11.598;2023-02-20T07:51:41;99958.69;;;22.50;29.22
51999;BME280;38015;50.924;11.598;2023-02-20T07:54:12;99959.63;;;22.49;29.25
51999;BME280;38015;50.924;11.598;2023-02-20T07:56:42;99965.47;;;22.52;29.18
51999;BME280;38015;50.924;11.598;2023-02-20T07:59:13;99956.45;;;22.59;29.03
51999;BME280;38015;50.924;11.598;2023-02-20T08:01:43;99949.38;;;22.65;28.86
51999;BME280;38015;50.924;11.598;2023-02-20T08:04:14;99936.89;;;22.67;28.79
51999;BME280;38015;50.924;11.598;2023-02-20T08:06:44;99934.10;;;22.65;28.82
51999;BME280;38015;50.924;11.598;2023-02-20T08:09:15;99924.28;;;22.63;28.68
51999;BME280;38015;50.924;11.598;2023-02-20T08:11:46;99929.29;;;22.65;28.67
51999;BME280;38015;50.924;11.598;2023-02-20T08:14:15;99931.64;;;22.71;28.63
51999;BME280;38015;50.924;11.598;2023-02-20T08:16:46;99932.88;;;22.73;28.58
51999;BME280;38015;50.924;11.598;2023-02-20T08:19:16;99931.11;;;22.68;28.74
51999;BME280;38015;50.924;11.598;2023-02-20T08:21:47;99927.54;;;22.72;28.73
51999;BME280;38015;50.924;11.598;2023-02-20T08:24:17;99924.88;;;22.73;28.75
51999;BME280;38015;50.924;11.598;2023-02-20T08:26:48;99920.78;;;22.75;28.75
51999;BME280;38015;50.924;11.598;2023-02-20T08:29:18;99921.03;;;22.77;28.80
51999;BME280;38015;50.924;11.598;2023-02-20T08:31:49;99914.06;;;22.77;28.80
51999;BME280;38015;50.924;11.598;2023-02-20T08:34:19;99902.55;;;22.76;28.86
51999;BME280;38015;50.924;11.598;2023-02-20T08:36:50;99901.60;;;22.73;28.93
51999;BME280;38015;50.924;11.598;2023-02-20T08:39:20;99893.00;;;22.79;28.84
51999;BME280;38015;50.924;11.598;2023-02-20T08:41:51;99890.45;;;22.57;29.23
51999;BME280;38015;50.924;11.598;2023-02-20T08:44:21;99885.91;;;22.75;28.96
51999;BME280;38015;50.924;11.598;2023-02-20T08:46:52;99878.82;;;22.78;28.91
51999;BME280;38015;50.924;11.598;2023-02-20T08:49:22;99879.36;;;22.81;28.87
51999;BME280;38015;50.924;11.598;2023-02-20T08:51:54;99877.63;;;22.79;28.94
51999;BME280;38015;50.924;11.598;2023-02-20T08:54:24;99876.64;;;22.79;28.90
51999;BME280;38015;50.924;11.598;2023-02-20T08:56:53;99874.49;;;22.79;28.97
51999;BME280;38015;50.924;11.598;2023-02-20T08:59:24;99866.73;;;22.83;28.91
51999;BME280;38015;50.924;11.598;2023-02-20T09:01:54;99861.68;;;22.69;29.23
51999;BME280;38015;50.924;11.598;2023-02-20T09:04:25;99858.08;;;22.79;29.02
51999;BME280;38015;50.924;11.598;2023-02-20T09:06:55;99859.25;;;22.81;28.94
51999;BME280;38015;50.924;11.598;2023-02-20T09:09:26;99849.41;;;22.82;28.96
51999;BME280;38015;50.924;11.598;2023-02-20T09:11:56;99856.42;;;22.74;29.01
51999;BME280;38015;50.924;11.598;2023-02-20T09:14:27;99845.22;;;22.79;28.84
51999;BME280;38015;50.924;11.598;2023-02-20T09:16:57;99837.97;;;22.80;28.78
51999;BME280;38015;50.924;11.598;2023-02-20T09:19:29;99847.31;;;22.76;28.93
51999;BME280;38015;50.924;11.598;2023-02-20T09:21:58;99839.39;;;22.78;28.94
51999;BME280;38015;50.924;11.598;2023-02-20T09:24:29;99834.29;;;22.80;28.92
51999;BME280;38015;50.924;11.598;2023-02-20T09:26:59;99840.21;;;22.81;28.92
51999;BME280;38015;50.924;11.598;2023-02-20T09:29:30;99844.99;;;22.80;28.93
51999;BME280;38015;50.924;11.598;2023-02-20T09:32:00;99844.03;;;22.75;29.11
51999;BME280;38015;50.924;11.598;2023-02-20T09:34:30;99840.16;;;22.83;28.98
51999;BME280;38015;50.924;11.598;2023-02-20T09:37:01;99849.97;;;22.80;29.06
51999;BME280;38015;50.924;11.598;2023-02-20T09:39:31;99845.60;;;22.82;29.04
51999;BME280;38015;50.924;11.598;2023-02-20T09:42:13;99851.55;;;22.76;29.20
51999;BME280;38015;50.924;11.598;2023-02-20T09:44:41;99846.10;;;22.83;29.14
51999;BME280;38015;50.924;11.598;2023-02-20T09:47:14;99851.12;;;22.97;28.89
51999;BME280;38015;50.924;11.598;2023-02-20T09:49:34;99842.92;;;23.02;28.80
51999;BME280;38015;50.924;11.598;2023-02-20T09:52:09;99847.20;;;23.04;28.67
51999;BME280;38015;50.924;11.598;2023-02-20T09:54:40;99844.96;;;22.96;28.80
51999;BME280;38015;50.924;11.598;2023-02-20T09:57:11;99850.19;;;23.06;28.65
51999;BME280;38015;50.924;11.598;2023-02-20T09:59:38;99847.05;;;23.16;28.48
51999;BME280;38015;50.924;11.598;2023-02-20T10:02:15;99840.18;;;23.09;28.59
51999;BME280;38015;50.924;11.598;2023-02-20T10:04:40;99844.35;;;23.12;28.54
51999;BME280;38015;50.924;11.598;2023-02-20T10:07:15;99848.58;;;23.13;28.66
51999;BME280;38015;50.924;11.598;2023-02-20T10:09:37;99847.07;;;22.98;29.06
51999;BME280;38015;50.924;11.598;2023-02-20T10:12:16;99830.88;;;22.98;29.12
51999;BME280;38015;50.924;11.598;2023-02-20T10:17:18;99830.44;;;23.04;29.35
51999;BME280;38015;50.924;11.598;2023-02-20T10:19:47;99831.57;;;23.03;29.74
51999;BME280;38015;50.924;11.598;2023-02-20T10:22:13;99829.09;;;22.99;29.79
51999;BME280;38015;50.924;11.598;2023-02-20T10:24:46;99824.16;;;23.00;29.54
51999;BME280;38015;50.924;11.598;2023-02-20T10:27:26;99815.78;;;22.99;29.48
51999;BME280;38015;50.924;11.598;2023-02-20T10:29:45;99818.13;;;23.01;29.31
51999;BME280;38015;50.924;11.598;2023-02-20T10:32:17;99817.08;;;23.06;29.10
51999;BME280;38015;50.924;11.598;2023-02-20T10:34:49;99807.28;;;23.06;29.02
51999;BME280;38015;50.924;11.598;2023-02-20T10:37:15;99806.34;;;23.06;28.89
51999;BME280;38015;50.924;11.598;2023-02-20T10:39:50;99803.55;;;23.03;28.89
51999;BME280;38015;50.924;11.598;2023-02-20T10:42:18;99802.89;;;23.13;28.70
51999;BME280;38015;50.924;11.598;2023-02-20T10:44:49;99797.19;;;23.08;28.68
51999;BME280;38015;50.924;11.598;2023-02-20T10:47:21;99786.46;;;23.00;28.76
51999;BME280;38015;50.924;11.598;2023-02-20T10:49:50;99778.85;;;22.91;28.91
51999;BME280;38015;50.924;11.598;2023-02-20T10:52:21;99773.71;;;23.00;28.68
51999;BME280;38015;50.924;11.598;2023-02-20T10:54:50;99766.13;;;22.99;28.62
51999;BME280;38015;50.924;11.598;2023-02-20T10:57:21;99749.79;;;22.91;28.71
51999;BME280;38015;50.924;11.598;2023-02-20T10:59:49;99767.54;;;22.84;28.81
51999;BME280;38015;50.924;11.598;2023-02-20T11:02:22;99756.42;;;22.78;28.85
51999;BME280;38015;50.924;11.598;2023-02-20T11:04:53;99756.39;;;22.58;29.19
51999;BME280;38015;50.924;11.598;2023-02-20T11:07:19;99743.76;;;22.80;28.68
51999;BME280;38015;50.924;11.598;2023-02-20T11:09:49;99737.18;;;22.87;28.45
51999;BME280;38015;50.924;11.598;2023-02-20T11:12:26;99730.54;;;22.85;28.47
51999;BME280;38015;50.924;11.598;2023-02-20T11:14:56;99725.25;;;22.46;29.08
51999;BME280;38015;50.924;11.598;2023-02-20T11:17:22;99722.20;;;22.46;29.07
51999;BME280;38015;50.924;11.598;2023-02-20T11:19:52;99710.80;;;22.52;28.92
51999;BME280;38015;50.924;11.598;2023-02-20T11:24:51;99712.72;;;22.76;28.44
51999;BME280;38015;50.924;11.598;2023-02-20T11:27:25;99713.39;;;22.72;28.46
51999;BME280;38015;50.924;11.598;2023-02-20T11:29:54;99706.70;;;22.42;28.96
51999;BME280;38015;50.924;11.598;2023-02-20T11:32:27;99717.04;;;22.55;28.67
51999;BME280;38015;50.924;11.598;2023-02-20T11:35:02;99710.22;;;22.74;28.30
51999;BME280;38015;50.924;11.598;2023-02-20T11:37:24;99712.86;;;22.62;28.48
51999;BME280;38015;50.924;11.598;2023-02-20T11:39:58;99694.24;;;22.66;28.37
51999;BME280;38015;50.924;11.598;2023-02-20T11:42:31;99701.76;;;22.73;28.25
51999;BME280;38015;50.924;11.598;2023-02-20T11:47:27;99696.28;;;22.84;27.95
51999;BME280;38015;50.924;11.598;2023-02-20T11:52:26;99681.41;;;22.77;27.94
51999;BME280;38015;50.924;11.598;2023-02-20T11:57:28;99674.26;;;22.82;27.77
51999;BME280;38015;50.924;11.598;2023-02-20T12:00:07;99674.71;;;22.85;27.62
51999;BME280;38015;50.924;11.598;2023-02-20T12:02:28;99661.09;;;22.83;27.59
51999;BME280;38015;50.924;11.598;2023-02-20T12:05:07;99652.45;;;22.77;27.65
51999;BME280;38015;50.924;11.598;2023-02-20T12:07:34;99654.29;;;22.78;27.59
51999;BME280;38015;50.924;11.598;2023-02-20T12:12:31;99643.34;;;22.81;27.45
51999;BME280;38015;50.924;11.598;2023-02-20T12:15:01;99630.32;;;22.80;27.40
51999;BME280;38015;50.924;11.598;2023-02-20T12:17:36;99627.35;;;22.77;27.44
51999;BME280;38015;50.924;11.598;2023-02-20T12:20:07;99634.96;;;22.72;27.52
51999;BME280;38015;50.924;11.598;2023-02-20T12:22:33;99627.74;;;22.76;27.43
51999;BME280;38015;50.924;11.598;2023-02-20T12:25:16;99626.86;;;22.66;27.58
51999;BME280;38015;50.924;11.598;2023-02-20T12:27:43;99623.93;;;22.75;27.43
51999;BME280;38015;50.924;11.598;2023-02-20T12:32:42;99615.30;;;22.79;27.34
51999;BME280;38015;50.924;11.598;2023-02-20T12:37:46;99606.65;;;22.74;27.40
51999;BME280;38015;50.924;11.598;2023-02-20T12:40:21;99598.15;;;22.77;27.33
51999;BME280;38015;50.924;11.598;2023-02-20T12:42:42;99602.83;;;22.73;27.41
51999;BME280;38015;50.924;11.598;2023-02-20T12:45:19;99596.49;;;22.69;27.47
51999;BME280;38015;50.924;11.598;2023-02-20T12:47:38;99600.20;;;22.61;27.60
51999;BME280;38015;50.924;11.598;2023-02-20T12:50:18;99588.23;;;22.62;27.60
51999;BME280;38015;50.924;11.598;2023-02-20T12:52:48;99581.21;;;22.76;27.35
51999;BME280;38015;50.924;11.598;2023-02-20T12:55:19;99584.69;;;22.87;27.12
51999;BME280;38015;50.924;11.598;2023-02-20T12:57:43;99575.45;;;22.63;27.49
51999;BME280;38015;50.924;11.598;2023-02-20T13:00:21;99564.97;;;22.70;27.39
51999;BME280;38015;50.924;11.598;2023-02-20T13:02:44;99572.58;;;22.73;27.37
51999;BME280;38015;50.924;11.598;2023-02-20T13:05:15;99567.17;;;22.70;27.40
51999;BME280;38015;50.924;11.598;2023-02-20T13:07:46;99564.92;;;22.75;27.29
51999;BME280;38015;50.924;11.598;2023-02-20T13:10:16;99554.33;;;22.78;27.25
51999;BME280;38015;50.924;11.598;2023-02-20T13:12:42;99552.09;;;22.78;27.26
51999;BME280;38015;50.924;11.598;2023-02-20T13:15:26;99543.77;;;22.84;27.15
51999;BME280;38015;50.924;11.598;2023-02-20T13:17:48;99542.24;;;22.79;27.22
51999;BME280;38015;50.924;11.598;2023-02-20T13:20:19;99540.96;;;22.75;27.24
51999;BME280;38015;50.924;11.598;2023-02-20T13:27:44;99530.44;;;22.79;27.19
51999;BME280;38015;50.924;11.598;2023-02-20T13:30:20;99534.67;;;22.70;27.32
51999;BME280;38015;50.924;11.598;2023-02-20T13:32:45;99527.11;;;22.59;27.52
51999;BME280;38015;50.924;11.598;2023-02-20T13:37:52;99533.56;;;22.88;27.03
51999;BME280;38015;50.924;11.598;2023-02-20T13:47:48;99518.12;;;22.75;27.25